sensor_id;sensor_type;location;lat;lon;timestamp;temperature;humidity
25918;DHT22;13899;51.174;4.456;2024-03-02T00:00:37;6.60;99.90
25918;DHT22;13899;51.174;4.456;2024-03-02T00:03:04;6.50;99.90
25918;DHT22;13899;51.174;4.456;2024-03-02T00:05:29;6.50;99.90
25918;DHT22;13899;51.174;4.456;2024-03-02T00:07:56;6.60;99.90
25918;DHT22;13899;51.174;4.456;2024-03-02T00:10:23;6.50;99.90
25918;DHT22;13899;51.174;4.456;2024-03-02T00:12:53;6.50;99.90
25918;DHT22;13899;51.174;4.456;2024-03-02T00:17:52;6.50;99.90
25918;DHT22;13899;51.174;4.456;2024-03-02T00:20:18;6.50;99.90
25918;DHT22;13899;51.174;4.456;2024-03-02T00:22:47;6.50;99.90
25918;DHT22;13899;51.174;4.456;2024-03-02T00:25:13;6.40;99.90
25918;DHT22;13899;51.174;4.456;2024-03-02T00:27:38;6.40;99.90
25918;DHT22;13899;51.174;4.456;2024-03-02T00:30:35;6.40;99.90
25918;DHT22;13899;51.174;4.456;2024-03-02T00:33:00;6.40;99.90
25918;DHT22;13899;51.174;4.456;2024-03-02T00:35:26;6.40;99.90
25918;DHT22;13899;51.174;4.456;2024-03-02T00:37:51;6.50;99.90
25918;DHT22;13899;51.174;4.456;2024-03-02T00:40:17;6.40;99.90
25918;DHT22;13899;51.174;4.456;2024-03-02T00:42:42;6.50;99.90
25918;DHT22;13899;51.174;4.456;2024-03-02T00:45:08;6.40;99.90
25918;DHT22;13899;51.174;4.456;2024-03-02T00:47:38;6.40;99.90
25918;DHT22;13899;51.174;4.456;2024-03-02T00:50:03;6.50;99.90
25918;DHT22;13899;51.174;4.456;2024-03-02T00:52:29;6.50;99.90
25918;DHT22;13899;51.174;4.456;2024-03-02T00:54:57;6.50;99.90
25918;DHT22;13899;51.174;4.456;2024-03-02T00:57:22;6.50;99.90
25918;DHT22;13899;51.174;4.456;2024-03-02T00:59:51;6.50;99.90
25918;DHT22;13899;51.174;4.456;2024-03-02T01:02:17;6.50;99.90
25918;DHT22;13899;51.174;4.456;2024-03-02T01:04:42;6.60;99.90
25918;DHT22;13899;51.174;4.456;2024-03-02T01:07:08;6.50;99.90
25918;DHT22;13899;51.174;4.456;2024-03-02T01:09:33;6.50;99.90
25918;DHT22;13899;51.174;4.456;2024-03-02T01:11:59;6.50;99.90
25918;DHT22;13899;51.174;4.456;2024-03-02T01:14:24;6.50;99.90
25918;DHT22;13899;51.174;4.456;2024-03-02T01:16:49;6.50;99.90
25918;DHT22;13899;51.174;4.456;2024-03-02T01:19:15;6.50;99.90
25918;DHT22;13899;51.174;4.456;2024-03-02T01:21:40;6.50;99.90
25918;DHT22;13899;51.174;4.456;2024-03-02T01:24:06;6.50;99.90
25918;DHT22;13899;51.174;4.456;2024-03-02T01:26:31;6.50;99.90
25918;DHT22;13899;51.174;4.456;2024-03-02T01:28:57;6.50;99.90
25918;DHT22;13899;51.174;4.456;2024-03-02T01:31:22;6.50;99.90
25918;DHT22;13899;51.174;4.456;2024-03-02T01:33:49;6.60;99.90
25918;DHT22;13899;51.174;4.456;2024-03-02T01:36:14;6.60;99.90
25918;DHT22;13899;51.174;4.456;2024-03-02T01:38:40;6.50;99.90
25918;DHT22;13899;51.174;4.456;2024-03-02T01:41:05;6.50;99.90
25918;DHT22;13899;51.174;4.456;2024-03-02T01:43:31;6.70;99.90
25918;DHT22;13899;51.174;4.456;2024-03-02T01:45:56;6.60;99.90
25918;DHT22;13899;51.174;4.456;2024-03-02T01:48:22;6.60;99.90
25918;DHT22;13899;51.174;4.456;2024-03-02T01:50:47;6.60;99.90
25918;DHT22;13899;51.174;4.456;2024-03-02T01:53:13;6.60;99.90
25918;DHT22;13899;51.174;4.456;2024-03-02T01:55:38;6.70;99.90
25918;DHT22;13899;51.174;4.456;2024-03-02T01:58:04;6.70;99.90
25918;DHT22;13899;51.174;4.456;2024-03-02T02:00:30;6.60;99.90
25918;DHT22;13899;51.174;4.456;2024-03-02T02:02:55;6.70;99.90
25918;DHT22;13899;51.174;4.456;2024-03-02T02:05:22;6.70;99.90
25918;DHT22;13899;51.174;4.456;2024-03-02T02:07:48;6.80;99.90
25918;DHT22;13899;51.174;4.456;2024-03-02T02:10:14;6.80;99.90
25918;DHT22;13899;51.174;4.456;2024-03-02T02:12:40;6.80;99.90
25918;DHT22;13899;51.174;4.456;2024-03-02T02:15:27;6.80;99.90
25918;DHT22;13899;51.174;4.456;2024-03-02T02:17:52;6.80;99.90
25918;DHT22;13899;51.174;4.456;2024-03-02T02:20:18;6.80;99.90
25918;DHT22;13899;51.174;4.456;2024-03-02T02:22:54;6.70;99.90
25918;DHT22;13899;51.174;4.456;2024-03-02T02:25:20;6.80;99.90
25918;DHT22;13899;51.174;4.456;2024-03-02T02:27:46;6.80;99.90
25918;DHT22;13899;51.174;4.456;2024-03-02T02:30:11;6.80;99.90
25918;DHT22;13899;51.174;4.456;2024-03-02T02:32:37;6.80;99.90
25918;DHT22;13899;51.174;4.456;2024-03-02T02:35:03;6.80;99.90
25918;DHT22;13899;51.174;4.456;2024-03-02T02:37:28;6.80;99.90
25918;DHT22;13899;51.174;4.456;2024-03-02T02:39:54;6.70;99.90
25918;DHT22;13899;51.174;4.456;2024-03-02T02:42:19;6.80;99.90
25918;DHT22;13899;51.174;4.456;2024-03-02T02:44:45;6.80;99.90
25918;DHT22;13899;51.174;4.456;2024-03-02T02:47:10;6.70;99.90
25918;DHT22;13899;51.174;4.456;2024-03-02T02:49:36;6.80;99.90
25918;DHT22;13899;51.174;4.456;2024-03-02T02:52:01;6.90;99.90
25918;DHT22;13899;51.174;4.456;2024-03-02T02:54:27;6.90;99.90
25918;DHT22;13899;51.174;4.456;2024-03-02T02:56:52;6.90;99.90
25918;DHT22;13899;51.174;4.456;2024-03-02T02:59:18;6.90;99.90
25918;DHT22;13899;51.174;4.456;2024-03-02T03:01:43;6.80;99.90
25918;DHT22;13899;51.174;4.456;2024-03-02T03:04:09;6.90;99.90
25918;DHT22;13899;51.174;4.456;2024-03-02T03:06:35;6.90;99.90
25918;DHT22;13899;51.174;4.456;2024-03-02T03:09:00;6.90;99.90
25918;DHT22;13899;51.174;4.456;2024-03-02T03:11:26;6.90;99.90
25918;DHT22;13899;51.174;4.456;2024-03-02T03:13:52;6.90;99.90
25918;DHT22;13899;51.174;4.456;2024-03-02T03:16:19;7.00;99.90
25918;DHT22;13899;51.174;4.456;2024-03-02T03:18:44;6.90;99.90
25918;DHT22;13899;51.174;4.456;2024-03-02T03:21:10;6.90;99.90
25918;DHT22;13899;51.174;4.456;2024-03-02T03:23:36;6.90;99.90
25918;DHT22;13899;51.174;4.456;2024-03-02T03:26:01;6.90;99.90
25918;DHT22;13899;51.174;4.456;2024-03-02T03:28:27;7.00;99.90
25918;DHT22;13899;51.174;4.456;2024-03-02T03:30:52;7.00;99.90
25918;DHT22;13899;51.174;4.456;2024-03-02T03:33:18;7.00;99.90
25918;DHT22;13899;51.174;4.456;2024-03-02T03:35:43;6.90;99.90
25918;DHT22;13899;51.174;4.456;2024-03-02T03:38:09;7.00;99.90
25918;DHT22;13899;51.174;4.456;2024-03-02T03:40:34;7.00;99.90
25918;DHT22;13899;51.174;4.456;2024-03-02T03:43:00;6.90;99.90
25918;DHT22;13899;51.174;4.456;2024-03-02T03:45:25;6.80;99.90
25918;DHT22;13899;51.174;4.456;2024-03-02T03:47:52;6.90;99.90
25918;DHT22;13899;51.174;4.456;2024-03-02T03:50:18;6.90;99.90
25918;DHT22;13899;51.174;4.456;2024-03-02T03:52:43;6.90;99.90
25918;DHT22;13899;51.174;4.456;2024-03-02T03:55:09;7.00;99.90
25918;DHT22;13899;51.174;4.456;2024-03-02T03:57:35;6.80;99.90
25918;DHT22;13899;51.174;4.456;2024-03-02T04:00:01;6.60;99.90
25918;DHT22;13899;51.174;4.456;2024-03-02T04:02:26;6.60;99.90
25918;DHT22;13899;51.174;4.456;2024-03-02T04:04:52;6.60;99.90
25918;DHT22;13899;51.174;4.456;2024-03-02T04:07:17;6.60;99.90
25918;DHT22;13899;51.174;4.456;2024-03-02T04:09:43;6.50;99.90
25918;DHT22;13899;51.174;4.456;2024-03-02T04:12:08;6.60;99.90
25918;DHT22;13899;51.174;4.456;2024-03-02T04:14:34;6.60;99.90
25918;DHT22;13899;51.174;4.456;2024-03-02T04:16:59;6.50;99.90
25918;DHT22;13899;51.174;4.456;2024-03-02T04:19:25;6.60;99.90
25918;DHT22;13899;51.174;4.456;2024-03-02T04:21:51;6.60;99.90
25918;DHT22;13899;51.174;4.456;2024-03-02T04:24:16;6.70;99.90
25918;DHT22;13899;51.174;4.456;2024-03-02T04:26:41;6.60;99.90
25918;DHT22;13899;51.174;4.456;2024-03-02T04:29:07;6.80;99.90
25918;DHT22;13899;51.174;4.456;2024-03-02T04:31:33;6.70;99.90
25918;DHT22;13899;51.174;4.456;2024-03-02T04:33:58;6.70;99.90
25918;DHT22;13899;51.174;4.456;2024-03-02T04:36:24;6.70;99.90
25918;DHT22;13899;51.174;4.456;2024-03-02T04:38:49;6.60;99.90
25918;DHT22;13899;51.174;4.456;2024-03-02T04:41:15;6.50;99.90
25918;DHT22;13899;51.174;4.456;2024-03-02T04:43:40;6.40;99.90
25918;DHT22;13899;51.174;4.456;2024-03-02T04:46:06;6.40;99.90
25918;DHT22;13899;51.174;4.456;2024-03-02T04:48:32;6.30;99.90
25918;DHT22;13899;51.174;4.456;2024-03-02T04:50:58;6.40;99.90
25918;DHT22;13899;51.174;4.456;2024-03-02T04:53:23;6.40;99.90
25918;DHT22;13899;51.174;4.456;2024-03-02T04:55:49;6.40;99.90
25918;DHT22;13899;51.174;4.456;2024-03-02T04:58:35;6.40;99.90
25918;DHT22;13899;51.174;4.456;2024-03-02T05:01:00;6.40;99.90
25918;DHT22;13899;51.174;4.456;2024-03-02T05:03:26;6.50;99.90
25918;DHT22;13899;51.174;4.456;2024-03-02T05:05:51;6.40;99.90
25918;DHT22;13899;51.174;4.456;2024-03-02T05:08:17;6.40;99.90
25918;DHT22;13899;51.174;4.456;2024-03-02T05:10:42;6.40;99.90
25918;DHT22;13899;51.174;4.456;2024-03-02T05:13:08;6.30;99.90
25918;DHT22;13899;51.174;4.456;2024-03-02T05:15:33;6.30;99.90
25918;DHT22;13899;51.174;4.456;2024-03-02T05:17:59;6.20;99.90
25918;DHT22;13899;51.174;4.456;2024-03-02T05:20:25;6.20;99.90
25918;DHT22;13899;51.174;4.456;2024-03-02T05:22:52;6.10;99.90
25918;DHT22;13899;51.174;4.456;2024-03-02T05:25:17;6.10;99.90
25918;DHT22;13899;51.174;4.456;2024-03-02T05:27:43;6.10;99.90
25918;DHT22;13899;51.174;4.456;2024-03-02T05:30:09;6.00;99.90
25918;DHT22;13899;51.174;4.456;2024-03-02T05:32:35;6.00;99.90
25918;DHT22;13899;51.174;4.456;2024-03-02T05:35:00;5.90;99.90
25918;DHT22;13899;51.174;4.456;2024-03-02T05:37:26;5.90;99.90
25918;DHT22;13899;51.174;4.456;2024-03-02T05:39:51;6.00;99.90
25918;DHT22;13899;51.174;4.456;2024-03-02T05:42:17;5.80;99.90
25918;DHT22;13899;51.174;4.456;2024-03-02T05:44:43;5.70;99.90
25918;DHT22;13899;51.174;4.456;2024-03-02T05:47:08;5.80;99.90
25918;DHT22;13899;51.174;4.456;2024-03-02T05:49:34;5.60;99.90
25918;DHT22;13899;51.174;4.456;2024-03-02T05:51:59;5.60;99.90
25918;DHT22;13899;51.174;4.456;2024-03-02T05:54:25;5.60;99.90
25918;DHT22;13899;51.174;4.456;2024-03-02T05:56:51;5.50;99.90
25918;DHT22;13899;51.174;4.456;2024-03-02T05:59:16;5.70;99.90
25918;DHT22;13899;51.174;4.456;2024-03-02T06:01:43;5.60;99.90
25918;DHT22;13899;51.174;4.456;2024-03-02T06:04:12;5.60;99.90
25918;DHT22;13899;51.174;4.456;2024-03-02T06:06:37;5.50;99.90
25918;DHT22;13899;51.174;4.456;2024-03-02T06:09:04;5.60;99.90
25918;DHT22;13899;51.174;4.456;2024-03-02T06:11:36;5.50;99.90
25918;DHT22;13899;51.174;4.456;2024-03-02T06:14:04;5.50;99.90
25918;DHT22;13899;51.174;4.456;2024-03-02T06:16:30;5.50;99.90
25918;DHT22;13899;51.174;4.456;2024-03-02T06:18:55;5.60;99.90
25918;DHT22;13899;51.174;4.456;2024-03-02T06:21:26;5.60;99.90
25918;DHT22;13899;51.174;4.456;2024-03-02T06:23:52;5.50;99.90
25918;DHT22;13899;51.174;4.456;2024-03-02T06:26:18;5.50;99.90
25918;DHT22;13899;51.174;4.456;2024-03-02T06:28:44;5.50;99.90
25918;DHT22;13899;51.174;4.456;2024-03-02T06:31:09;5.60;99.90
25918;DHT22;13899;51.174;4.456;2024-03-02T06:33:35;5.50;99.90
25918;DHT22;13899;51.174;4.456;2024-03-02T06:36:01;5.60;99.90
25918;DHT22;13899;51.174;4.456;2024-03-02T06:38:26;5.50;99.90
25918;DHT22;13899;51.174;4.456;2024-03-02T06:40:52;5.40;99.90
25918;DHT22;13899;51.174;4.456;2024-03-02T06:43:17;5.40;99.90
25918;DHT22;13899;51.174;4.456;2024-03-02T06:45:43;5.40;99.90
25918;DHT22;13899;51.174;4.456;2024-03-02T06:48:08;5.40;99.90
25918;DHT22;13899;51.174;4.456;2024-03-02T06:50:34;5.40;99.90
25918;DHT22;13899;51.174;4.456;2024-03-02T06:52:59;5.40;99.90
25918;DHT22;13899;51.174;4.456;2024-03-02T06:55:25;5.30;99.90
25918;DHT22;13899;51.174;4.456;2024-03-02T06:57:51;5.40;99.90
25918;DHT22;13899;51.174;4.456;2024-03-02T07:00:17;5.40;99.90
25918;DHT22;13899;51.174;4.456;2024-03-02T07:02:43;5.40;99.90
25918;DHT22;13899;51.174;4.456;2024-03-02T07:05:09;5.40;99.90
25918;DHT22;13899;51.174;4.456;2024-03-02T07:07:35;5.40;99.90
25918;DHT22;13899;51.174;4.456;2024-03-02T07:10:02;5.40;99.90
25918;DHT22;13899;51.174;4.456;2024-03-02T07:12:28;5.50;99.90
25918;DHT22;13899;51.174;4.456;2024-03-02T07:14:53;5.60;99.90
25918;DHT22;13899;51.174;4.456;2024-03-02T07:17:22;5.70;99.90
25918;DHT22;13899;51.174;4.456;2024-03-02T07:19:47;5.50;99.90
25918;DHT22;13899;51.174;4.456;2024-03-02T07:22:13;5.60;99.90
25918;DHT22;13899;51.174;4.456;2024-03-02T07:24:39;5.60;99.90
25918;DHT22;13899;51.174;4.456;2024-03-02T07:27:05;5.80;99.90
25918;DHT22;13899;51.174;4.456;2024-03-02T07:29:30;5.70;99.90
25918;DHT22;13899;51.174;4.456;2024-03-02T07:31:56;5.80;99.90
25918;DHT22;13899;51.174;4.456;2024-03-02T07:34:21;6.00;99.90
25918;DHT22;13899;51.174;4.456;2024-03-02T07:36:47;6.10;99.90
25918;DHT22;13899;51.174;4.456;2024-03-02T07:39:12;6.10;99.90
25918;DHT22;13899;51.174;4.456;2024-03-02T07:41:38;6.20;99.90
25918;DHT22;13899;51.174;4.456;2024-03-02T07:44:05;6.10;99.90
25918;DHT22;13899;51.174;4.456;2024-03-02T07:46:30;6.30;99.90
25918;DHT22;13899;51.174;4.456;2024-03-02T07:48:56;6.30;99.90
25918;DHT22;13899;51.174;4.456;2024-03-02T07:51:21;6.30;99.90
25918;DHT22;13899;51.174;4.456;2024-03-02T07:53:47;6.30;99.90
25918;DHT22;13899;51.174;4.456;2024-03-02T07:56:12;6.30;99.90
25918;DHT22;13899;51.174;4.456;2024-03-02T07:58:38;6.40;99.90
25918;DHT22;13899;51.174;4.456;2024-03-02T08:01:03;6.50;99.90
25918;DHT22;13899;51.174;4.456;2024-03-02T08:03:29;6.60;99.90
25918;DHT22;13899;51.174;4.456;2024-03-02T08:05:54;6.60;99.90
25918;DHT22;13899;51.174;4.456;2024-03-02T08:08:20;6.70;99.90
25918;DHT22;13899;51.174;4.456;2024-03-02T08:10:46;6.90;99.90
25918;DHT22;13899;51.174;4.456;2024-03-02T08:13:11;7.00;99.90
25918;DHT22;13899;51.174;4.456;2024-03-02T08:15:37;7.10;99.90
25918;DHT22;13899;51.174;4.456;2024-03-02T08:18:02;7.00;99.90
25918;DHT22;13899;51.174;4.456;2024-03-02T08:20:28;7.10;99.90
25918;DHT22;13899;51.174;4.456;2024-03-02T08:22:53;7.20;99.90
25918;DHT22;13899;51.174;4.456;2024-03-02T08:25:20;7.20;99.90
25918;DHT22;13899;51.174;4.456;2024-03-02T08:27:46;7.30;99.90
25918;DHT22;13899;51.174;4.456;2024-03-02T08:30:11;7.40;99.90
25918;DHT22;13899;51.174;4.456;2024-03-02T08:32:37;7.40;99.90
25918;DHT22;13899;51.174;4.456;2024-03-02T08:35:03;7.50;99.90
25918;DHT22;13899;51.174;4.456;2024-03-02T08:37:29;7.50;99.90
25918;DHT22;13899;51.174;4.456;2024-03-02T08:39:54;7.60;99.90
25918;DHT22;13899;51.174;4.456;2024-03-02T08:42:20;7.70;99.90
25918;DHT22;13899;51.174;4.456;2024-03-02T08:44:46;7.80;99.90
25918;DHT22;13899;51.174;4.456;2024-03-02T08:47:11;7.90;99.90
25918;DHT22;13899;51.174;4.456;2024-03-02T08:49:37;8.20;99.90
25918;DHT22;13899;51.174;4.456;2024-03-02T08:52:02;8.50;99.90
25918;DHT22;13899;51.174;4.456;2024-03-02T08:54:28;8.50;99.90
25918;DHT22;13899;51.174;4.456;2024-03-02T08:56:53;8.20;99.90
25918;DHT22;13899;51.174;4.456;2024-03-02T08:59:18;8.20;99.90
25918;DHT22;13899;51.174;4.456;2024-03-02T09:01:44;8.30;99.90
25918;DHT22;13899;51.174;4.456;2024-03-02T09:04:10;8.40;99.90
25918;DHT22;13899;51.174;4.456;2024-03-02T09:06:35;8.50;99.90
25918;DHT22;13899;51.174;4.456;2024-03-02T09:09:01;8.50;99.90
25918;DHT22;13899;51.174;4.456;2024-03-02T09:11:26;8.60;99.90
25918;DHT22;13899;51.174;4.456;2024-03-02T09:13:52;8.60;99.90
25918;DHT22;13899;51.174;4.456;2024-03-02T09:16:18;8.60;99.90
25918;DHT22;13899;51.174;4.456;2024-03-02T09:18:44;8.70;99.90
25918;DHT22;13899;51.174;4.456;2024-03-02T09:21:10;8.80;99.90
25918;DHT22;13899;51.174;4.456;2024-03-02T09:23:35;9.00;99.90
25918;DHT22;13899;51.174;4.456;2024-03-02T09:26:01;9.10;99.90
25918;DHT22;13899;51.174;4.456;2024-03-02T09:28:26;9.10;99.90
25918;DHT22;13899;51.174;4.456;2024-03-02T09:30:52;9.20;99.90
25918;DHT22;13899;51.174;4.456;2024-03-02T09:33:17;9.10;99.90
25918;DHT22;13899;51.174;4.456;2024-03-02T09:35:45;9.30;99.90
25918;DHT22;13899;51.174;4.456;2024-03-02T09:38:10;9.30;99.90
25918;DHT22;13899;51.174;4.456;2024-03-02T09:40:36;9.50;99.90
25918;DHT22;13899;51.174;4.456;2024-03-02T09:43:01;10.00;99.90
25918;DHT22;13899;51.174;4.456;2024-03-02T09:45:28;10.10;99.90
25918;DHT22;13899;51.174;4.456;2024-03-02T09:47:54;10.30;99.90
25918;DHT22;13899;51.174;4.456;2024-03-02T09:50:20;10.10;99.90
25918;DHT22;13899;51.174;4.456;2024-03-02T09:52:48;9.90;99.90
25918;DHT22;13899;51.174;4.456;2024-03-02T09:55:17;10.00;99.90
25918;DHT22;13899;51.174;4.456;2024-03-02T09:57:44;10.20;99.90
25918;DHT22;13899;51.174;4.456;2024-03-02T10:00:10;10.60;99.90
25918;DHT22;13899;51.174;4.456;2024-03-02T10:02:40;10.30;99.90
25918;DHT22;13899;51.174;4.456;2024-03-02T10:05:06;9.90;99.90
25918;DHT22;13899;51.174;4.456;2024-03-02T10:07:32;9.80;99.90
25918;DHT22;13899;51.174;4.456;2024-03-02T10:09:58;9.80;99.90
25918;DHT22;13899;51.174;4.456;2024-03-02T10:12:24;9.80;99.90
25918;DHT22;13899;51.174;4.456;2024-03-02T10:14:49;10.00;99.90
25918;DHT22;13899;51.174;4.456;2024-03-02T10:17:27;10.10;99.90
25918;DHT22;13899;51.174;4.456;2024-03-02T10:19:56;10.60;99.90
25918;DHT22;13899;51.174;4.456;2024-03-02T10:22:22;10.60;99.90
25918;DHT22;13899;51.174;4.456;2024-03-02T10:24:48;10.50;99.90
25918;DHT22;13899;51.174;4.456;2024-03-02T10:27:19;10.40;99.90
25918;DHT22;13899;51.174;4.456;2024-03-02T10:29:47;10.60;99.90
25918;DHT22;13899;51.174;4.456;2024-03-02T10:32:13;11.00;99.90
25918;DHT22;13899;51.174;4.456;2024-03-02T10:34:42;11.50;99.90
25918;DHT22;13899;51.174;4.456;2024-03-02T10:37:08;11.30;99.90
25918;DHT22;13899;51.174;4.456;2024-03-02T10:39:36;11.90;99.90
25918;DHT22;13899;51.174;4.456;2024-03-02T10:42:04;12.40;99.90
25918;DHT22;13899;51.174;4.456;2024-03-02T10:44:31;12.30;99.90
25918;DHT22;13899;51.174;4.456;2024-03-02T10:46:59;12.30;99.90
25918;DHT22;13899;51.174;4.456;2024-03-02T10:49:25;13.10;99.90
25918;DHT22;13899;51.174;4.456;2024-03-02T10:51:51;13.40;99.90
25918;DHT22;13899;51.174;4.456;2024-03-02T10:54:17;14.20;99.90
25918;DHT22;13899;51.174;4.456;2024-03-02T10:56:44;14.50;99.90
25918;DHT22;13899;51.174;4.456;2024-03-02T10:59:17;13.40;99.90
25918;DHT22;13899;51.174;4.456;2024-03-02T11:01:47;13.60;99.90
25918;DHT22;13899;51.174;4.456;2024-03-02T11:04:12;13.60;99.90
25918;DHT22;13899;51.174;4.456;2024-03-02T11:06:41;13.30;99.90
25918;DHT22;13899;51.174;4.456;2024-03-02T11:09:10;13.10;99.90
25918;DHT22;13899;51.174;4.456;2024-03-02T11:11:36;13.80;99.90
25918;DHT22;13899;51.174;4.456;2024-03-02T11:14:02;14.40;99.90
25918;DHT22;13899;51.174;4.456;2024-03-02T11:16:34;12.90;99.90
25918;DHT22;13899;51.174;4.456;2024-03-02T11:19:10;12.70;99.90
25918;DHT22;13899;51.174;4.456;2024-03-02T11:21:37;13.10;99.90
25918;DHT22;13899;51.174;4.456;2024-03-02T11:26:52;14.20;99.90
25918;DHT22;13899;51.174;4.456;2024-03-02T11:32:20;12.60;99.90
25918;DHT22;13899;51.174;4.456;2024-03-02T11:34:46;12.30;99.90
25918;DHT22;13899;51.174;4.456;2024-03-02T11:37:13;13.00;99.90
25918;DHT22;13899;51.174;4.456;2024-03-02T11:39:39;13.30;99.90
25918;DHT22;13899;51.174;4.456;2024-03-02T11:42:05;14.10;99.90
25918;DHT22;13899;51.174;4.456;2024-03-02T11:44:32;13.50;99.90
25918;DHT22;13899;51.174;4.456;2024-03-02T11:47:01;13.80;99.90
25918;DHT22;13899;51.174;4.456;2024-03-02T11:49:37;13.60;99.90
25918;DHT22;13899;51.174;4.456;2024-03-02T11:52:04;13.80;99.90
25918;DHT22;13899;51.174;4.456;2024-03-02T11:54:30;13.60;99.90
25918;DHT22;13899;51.174;4.456;2024-03-02T11:56:58;13.20;99.90
25918;DHT22;13899;51.174;4.456;2024-03-02T11:59:25;13.20;99.90
25918;DHT22;13899;51.174;4.456;2024-03-02T12:01:51;13.20;99.90
25918;DHT22;13899;51.174;4.456;2024-03-02T12:04:17;12.60;99.90
25918;DHT22;13899;51.174;4.456;2024-03-02T12:06:43;12.70;99.90
25918;DHT22;13899;51.174;4.456;2024-03-02T12:09:12;12.50;99.90
25918;DHT22;13899;51.174;4.456;2024-03-02T12:11:40;12.90;99.90
25918;DHT22;13899;51.174;4.456;2024-03-02T12:14:10;13.30;99.90
25918;DHT22;13899;51.174;4.456;2024-03-02T12:16:36;14.20;99.90
25918;DHT22;13899;51.174;4.456;2024-03-02T12:19:03;15.40;99.90
25918;DHT22;13899;51.174;4.456;2024-03-02T12:21:29;16.40;99.90
25918;DHT22;13899;51.174;4.456;2024-03-02T12:23:54;16.80;99.90
25918;DHT22;13899;51.174;4.456;2024-03-02T12:26:21;16.80;99.90
25918;DHT22;13899;51.174;4.456;2024-03-02T12:28:47;16.00;99.90
25918;DHT22;13899;51.174;4.456;2024-03-02T12:31:13;16.50;99.90
25918;DHT22;13899;51.174;4.456;2024-03-02T12:33:39;15.00;99.90
25918;DHT22;13899;51.174;4.456;2024-03-02T12:36:07;16.00;99.90
25918;DHT22;13899;51.174;4.456;2024-03-02T12:38:34;16.00;99.90
25918;DHT22;13899;51.174;4.456;2024-03-02T12:41:00;14.90;99.90
25918;DHT22;13899;51.174;4.456;2024-03-02T12:43:29;14.00;99.90
25918;DHT22;13899;51.174;4.456;2024-03-02T12:45:55;13.60;99.90
25918;DHT22;13899;51.174;4.456;2024-03-02T12:48:21;13.80;99.90
25918;DHT22;13899;51.174;4.456;2024-03-02T12:50:46;14.60;99.90
25918;DHT22;13899;51.174;4.456;2024-03-02T12:53:16;14.80;99.90
25918;DHT22;13899;51.174;4.456;2024-03-02T12:55:42;15.00;99.90
25918;DHT22;13899;51.174;4.456;2024-03-02T12:58:08;14.80;99.90
25918;DHT22;13899;51.174;4.456;2024-03-02T13:00:34;14.90;99.90
25918;DHT22;13899;51.174;4.456;2024-03-02T13:03:00;14.70;99.90
25918;DHT22;13899;51.174;4.456;2024-03-02T13:05:29;14.60;99.90
25918;DHT22;13899;51.174;4.456;2024-03-02T13:07:55;14.30;99.90
25918;DHT22;13899;51.174;4.456;2024-03-02T13:10:21;14.40;99.90
25918;DHT22;13899;51.174;4.456;2024-03-02T13:12:47;13.70;99.90
25918;DHT22;13899;51.174;4.456;2024-03-02T13:15:12;13.90;99.90
25918;DHT22;13899;51.174;4.456;2024-03-02T13:17:38;14.10;99.90
25918;DHT22;13899;51.174;4.456;2024-03-02T13:20:04;13.90;99.90
25918;DHT22;13899;51.174;4.456;2024-03-02T13:22:33;14.10;99.90
25918;DHT22;13899;51.174;4.456;2024-03-02T13:24:58;14.10;99.90
25918;DHT22;13899;51.174;4.456;2024-03-02T13:27:25;14.20;99.90
25918;DHT22;13899;51.174;4.456;2024-03-02T13:29:50;13.80;99.90
25918;DHT22;13899;51.174;4.456;2024-03-02T13:32:16;13.90;99.90
25918;DHT22;13899;51.174;4.456;2024-03-02T13:34:42;14.00;99.90
25918;DHT22;13899;51.174;4.456;2024-03-02T13:37:08;13.70;99.90
25918;DHT22;13899;51.174;4.456;2024-03-02T13:39:34;13.60;99.90
25918;DHT22;13899;51.174;4.456;2024-03-02T13:42:06;13.40;99.90
25918;DHT22;13899;51.174;4.456;2024-03-02T13:44:33;13.60;99.90
25918;DHT22;13899;51.174;4.456;2024-03-02T13:46:59;13.60;99.90
25918;DHT22;13899;51.174;4.456;2024-03-02T13:49:26;13.60;99.90
25918;DHT22;13899;51.174;4.456;2024-03-02T13:51:59;13.60;99.90
25918;DHT22;13899;51.174;4.456;2024-03-02T13:54:26;13.40;99.90
25918;DHT22;13899;51.174;4.456;2024-03-02T13:56:52;13.20;99.90
25918;DHT22;13899;51.174;4.456;2024-03-02T13:59:17;13.10;99.90
25918;DHT22;13899;51.174;4.456;2024-03-02T14:01:43;13.20;99.90
25918;DHT22;13899;51.174;4.456;2024-03-02T14:04:09;13.30;99.90
25918;DHT22;13899;51.174;4.456;2024-03-02T14:06:35;13.30;99.90
25918;DHT22;13899;51.174;4.456;2024-03-02T14:09:00;13.30;99.90
25918;DHT22;13899;51.174;4.456;2024-03-02T14:11:26;13.60;99.90
25918;DHT22;13899;51.174;4.456;2024-03-02T14:13:52;13.90;99.90
25918;DHT22;13899;51.174;4.456;2024-03-02T14:16:20;13.70;99.90
25918;DHT22;13899;51.174;4.456;2024-03-02T14:18:45;13.60;99.90
25918;DHT22;13899;51.174;4.456;2024-03-02T14:21:11;13.50;99.90
25918;DHT22;13899;51.174;4.456;2024-03-02T14:23:37;13.60;99.90
25918;DHT22;13899;51.174;4.456;2024-03-02T14:26:02;13.70;99.90
25918;DHT22;13899;51.174;4.456;2024-03-02T14:28:28;13.70;99.90
25918;DHT22;13899;51.174;4.456;2024-03-02T14:30:53;13.70;99.90
25918;DHT22;13899;51.174;4.456;2024-03-02T14:33:20;13.70;99.90
25918;DHT22;13899;51.174;4.456;2024-03-02T14:35:45;13.70;99.90
25918;DHT22;13899;51.174;4.456;2024-03-02T14:38:11;13.60;99.90
25918;DHT22;13899;51.174;4.456;2024-03-02T14:40:37;13.70;99.90
25918;DHT22;13899;51.174;4.456;2024-03-02T14:43:03;14.30;99.90
25918;DHT22;13899;51.174;4.456;2024-03-02T14:45:29;14.80;99.90
25918;DHT22;13899;51.174;4.456;2024-03-02T14:47:54;14.90;99.90
25918;DHT22;13899;51.174;4.456;2024-03-02T14:50:21;14.60;99.90
25918;DHT22;13899;51.174;4.456;2024-03-02T14:52:46;14.30;99.90
25918;DHT22;13899;51.174;4.456;2024-03-02T14:55:12;14.60;99.90
25918;DHT22;13899;51.174;4.456;2024-03-02T14:57:39;14.50;99.90
25918;DHT22;13899;51.174;4.456;2024-03-02T15:00:04;13.90;99.90
25918;DHT22;13899;51.174;4.456;2024-03-02T15:02:33;13.70;99.90
25918;DHT22;13899;51.174;4.456;2024-03-02T15:04:59;13.60;99.90
25918;DHT22;13899;51.174;4.456;2024-03-02T15:07:25;13.50;99.90
25918;DHT22;13899;51.174;4.456;2024-03-02T15:09:50;13.30;99.90
25918;DHT22;13899;51.174;4.456;2024-03-02T15:12:16;13.30;99.90
25918;DHT22;13899;51.174;4.456;2024-03-02T15:14:43;13.40;99.90
25918;DHT22;13899;51.174;4.456;2024-03-02T15:17:12;13.20;99.90
25918;DHT22;13899;51.174;4.456;2024-03-02T15:19:37;13.20;99.90
25918;DHT22;13899;51.174;4.456;2024-03-02T15:22:03;13.20;99.90
25918;DHT22;13899;51.174;4.456;2024-03-02T15:24:29;13.20;99.90
25918;DHT22;13899;51.174;4.456;2024-03-02T15:26:54;13.20;99.90
25918;DHT22;13899;51.174;4.456;2024-03-02T15:29:20;13.30;99.90
25918;DHT22;13899;51.174;4.456;2024-03-02T15:31:47;13.50;99.90
25918;DHT22;13899;51.174;4.456;2024-03-02T15:34:13;13.40;99.90
25918;DHT22;13899;51.174;4.456;2024-03-02T15:36:38;13.70;99.90
25918;DHT22;13899;51.174;4.456;2024-03-02T15:39:04;13.80;99.90
25918;DHT22;13899;51.174;4.456;2024-03-02T15:41:34;13.90;99.90